createdAt,value
2022-12-05T00:01:36.010Z,1.80
2022-12-05T00:04:07.072Z,1.80
2022-12-05T00:06:36.362Z,1.80
2022-12-05T00:09:06.211Z,1.80
2022-12-05T00:11:38.502Z,1.80
2022-12-05T00:14:08.564Z,1.80
2022-12-05T00:16:39.364Z,1.80
2022-12-05T00:19:09.324Z,1.70
2022-12-05T00:21:38.196Z,1.70
2022-12-05T00:24:09.362Z,1.80
2022-12-05T00:26:37.318Z,1.70
2022-12-05T00:29:05.586Z,1.80
2022-12-05T00:31:34.055Z,1.70
2022-12-05T00:34:02.966Z,1.80
2022-12-05T00:36:33.670Z,1.80
2022-12-05T00:39:04.011Z,1.70
2022-12-05T00:41:33.308Z,1.70
2022-12-05T00:44:02.389Z,1.70
2022-12-05T00:46:32.783Z,1.70
2022-12-05T00:49:02.360Z,1.80
2022-12-05T00:51:32.241Z,1.80
2022-12-05T00:54:02.538Z,1.80
2022-12-05T00:56:33.260Z,1.80
2022-12-05T00:59:02.848Z,1.80
2022-12-05T01:01:33.629Z,1.80
2022-12-05T01:04:04.429Z,1.80
2022-12-05T01:06:32.400Z,1.90
2022-12-05T01:09:00.740Z,1.90
2022-12-05T01:11:29.426Z,2.00
2022-12-05T01:13:59.405Z,1.90
2022-12-05T01:16:30.303Z,1.90
2022-12-05T01:19:00.333Z,1.90
2022-12-05T01:21:28.700Z,1.90
2022-12-05T01:23:57.515Z,1.90
2022-12-05T01:26:26.314Z,1.90
2022-12-05T01:28:55.920Z,1.90
2022-12-05T01:31:27.347Z,1.90
2022-12-05T01:34:00.311Z,1.90
2022-12-05T01:36:29.232Z,1.80
2022-12-05T01:38:57.497Z,1.80
2022-12-05T01:41:27.352Z,1.80
2022-12-05T01:44:00.653Z,1.80
2022-12-05T01:46:32.995Z,1.80
2022-12-05T01:49:04.957Z,1.70
2022-12-05T01:51:34.697Z,1.70
2022-12-05T01:54:03.520Z,1.70
2022-12-05T01:56:33.588Z,1.70
2022-12-05T01:59:04.191Z,1.70
2022-12-05T02:01:34.289Z,1.70
2022-12-05T02:04:02.959Z,1.70
2022-12-05T02:06:31.855Z,1.70
2022-12-05T02:08:59.939Z,1.70
2022-12-05T02:11:31.222Z,1.80
2022-12-05T02:14:24.251Z,1.80
2022-12-05T02:17:00.180Z,1.80
2022-12-05T02:20:03.139Z,1.90
2022-12-05T02:23:19.499Z,1.90
2022-12-05T02:26:17.149Z,1.90
2022-12-05T02:28:59.747Z,1.90
2022-12-05T02:31:36.023Z,1.90
2022-12-05T02:34:11.717Z,2.00
2022-12-05T02:36:45.158Z,2.00
2022-12-05T02:39:18.929Z,2.00
2022-12-05T02:41:52.307Z,2.00
2022-12-05T02:44:24.264Z,2.00
2022-12-05T02:46:55.149Z,2.00
2022-12-05T02:49:26.418Z,2.00
2022-12-05T02:51:59.057Z,2.10
2022-12-05T02:54:30.649Z,2.10
2022-12-05T02:57:00.524Z,2.10
2022-12-05T02:59:29.036Z,2.10
2022-12-05T03:01:58.463Z,2.00
2022-12-05T03:04:27.530Z,2.00
2022-12-05T03:06:59.891Z,1.90
2022-12-05T03:09:33.166Z,1.80
2022-12-05T03:12:07.927Z,1.80
2022-12-05T03:14:42.159Z,1.80
2022-12-05T03:17:18.409Z,1.80
2022-12-05T03:19:50.653Z,1.80
2022-12-05T03:22:27.192Z,1.70
2022-12-05T03:24:55.704Z,1.80
2022-12-05T03:27:29.044Z,1.70
2022-12-05T03:30:01.936Z,1.60
2022-12-05T03:32:38.017Z,1.60
2022-12-05T03:35:11.177Z,1.70
2022-12-05T03:37:48.610Z,1.70
2022-12-05T03:40:30.665Z,1.70
2022-12-05T03:43:05.041Z,1.80
2022-12-05T03:45:40.363Z,1.80
2022-12-05T03:48:15.943Z,1.80
2022-12-05T03:50:47.552Z,1.90
2022-12-05T03:53:21.084Z,1.90
2022-12-05T03:55:56.809Z,1.90
2022-12-05T03:58:29.219Z,1.90
2022-12-05T04:01:00.773Z,1.80
2022-12-05T04:03:39.529Z,1.80
2022-12-05T04:06:13.986Z,1.60
2022-12-05T04:08:46.913Z,1.60
2022-12-05T04:11:19.427Z,1.60
2022-12-05T04:13:49.808Z,1.50
2022-12-05T04:16:39.136Z,1.50
2022-12-05T04:19:14.395Z,1.60
2022-12-05T04:21:47.386Z,1.70
2022-12-05T04:24:35.746Z,1.90
2022-12-05T04:27:22.069Z,2.00
2022-12-05T04:29:58.128Z,2.10
2022-12-05T04:32:29.076Z,2.00
2022-12-05T04:35:02.595Z,2.00
2022-12-05T04:37:34.377Z,1.90
2022-12-05T04:40:08.836Z,1.80
2022-12-05T04:42:38.722Z,1.70
2022-12-05T04:45:09.541Z,1.60
2022-12-05T04:47:40.797Z,1.60
2022-12-05T04:50:13.257Z,1.60
2022-12-05T04:52:43.064Z,1.60
2022-12-05T04:55:14.673Z,1.60
2022-12-05T04:57:50.736Z,1.50
2022-12-05T05:00:19.301Z,1.50
2022-12-05T05:02:51.846Z,1.40
2022-12-05T05:05:22.919Z,1.30
2022-12-05T05:07:54.893Z,1.30
2022-12-05T05:10:30.331Z,1.30
2022-12-05T05:12:58.471Z,1.40
2022-12-05T05:15:26.498Z,1.50
2022-12-05T05:17:54.381Z,1.70
2022-12-05T05:20:27.516Z,1.80
2022-12-05T05:22:56.889Z,1.90
2022-12-05T05:25:27.908Z,2.10
2022-12-05T05:27:57.436Z,2.20
2022-12-05T05:30:26.315Z,2.20
2022-12-05T05:32:54.561Z,2.20
2022-12-05T05:35:23.889Z,2.30
2022-12-05T05:37:51.844Z,2.30
2022-12-05T05:40:20.201Z,2.30
2022-12-05T05:42:50.653Z,2.20
2022-12-05T05:45:19.008Z,2.20
2022-12-05T05:47:48.672Z,2.20
2022-12-05T05:50:21.395Z,2.10
2022-12-05T05:52:51.365Z,2.10
2022-12-05T05:55:19.390Z,2.20
2022-12-05T05:57:47.850Z,2.20
2022-12-05T06:00:17.078Z,2.20
2022-12-05T06:02:45.250Z,2.30
2022-12-05T06:05:13.330Z,2.30
2022-12-05T06:07:43.421Z,2.40
2022-12-05T06:10:13.107Z,2.40
2022-12-05T06:12:41.079Z,2.40
2022-12-05T06:15:10.118Z,2.50
2022-12-05T06:17:38.070Z,2.50
2022-12-05T06:20:07.125Z,2.50
2022-12-05T06:22:35.266Z,2.50
2022-12-05T06:25:03.266Z,2.50
2022-12-05T06:27:34.089Z,2.50
2022-12-05T06:30:02.220Z,2.50
2022-12-05T06:32:30.742Z,2.50
2022-12-05T06:34:59.080Z,2.50
2022-12-05T06:37:27.048Z,2.50
2022-12-05T06:39:55.187Z,2.40
2022-12-05T06:42:23.212Z,2.40
2022-12-05T06:44:52.721Z,2.40
2022-12-05T06:47:20.749Z,2.20
2022-12-05T06:49:48.677Z,2.20
2022-12-05T06:52:16.672Z,2.20
2022-12-05T06:54:44.623Z,2.30
2022-12-05T06:57:12.606Z,2.40
2022-12-05T06:59:44.390Z,2.50
2022-12-05T07:02:13.844Z,2.50
2022-12-05T07:04:41.942Z,2.60
2022-12-05T07:07:09.973Z,2.60
2022-12-05T07:09:48.545Z,2.70
2022-12-05T07:12:18.209Z,2.70
2022-12-05T07:14:48.715Z,2.80
2022-12-05T07:17:18.691Z,2.80
2022-12-05T07:19:48.516Z,2.90
2022-12-05T07:22:16.868Z,2.90
2022-12-05T07:24:45.445Z,2.90
2022-12-05T07:27:14.459Z,2.90
2022-12-05T07:29:42.852Z,3.00
2022-12-05T07:32:11.082Z,3.00
2022-12-05T07:34:41.704Z,3.00
2022-12-05T07:37:09.709Z,3.00
2022-12-05T07:39:37.845Z,3.00
2022-12-05T07:42:05.984Z,3.00
2022-12-05T07:44:34.876Z,3.10
2022-12-05T07:47:02.951Z,3.10
2022-12-05T07:49:30.974Z,3.20
2022-12-05T07:52:00.417Z,3.30
2022-12-05T07:54:28.583Z,3.30
2022-12-05T07:56:56.612Z,3.40
2022-12-05T07:59:24.627Z,3.50
2022-12-05T08:01:52.760Z,3.50
2022-12-05T08:04:20.764Z,3.60
2022-12-05T08:06:48.745Z,3.60
2022-12-05T08:09:18.032Z,3.60
2022-12-05T08:11:52.201Z,3.60
2022-12-05T08:14:20.808Z,3.70
2022-12-05T08:16:48.910Z,3.70
2022-12-05T08:19:17.903Z,3.70
2022-12-05T08:21:45.864Z,3.70
2022-12-05T08:24:14.250Z,3.80
2022-12-05T08:26:43.727Z,3.80
2022-12-05T08:29:13.592Z,3.90
2022-12-05T08:31:47.077Z,4.00
2022-12-05T08:34:16.272Z,4.00
2022-12-05T08:36:44.824Z,4.00
2022-12-05T08:39:16.004Z,4.00
2022-12-05T08:41:49.216Z,4.10
2022-12-05T08:44:18.458Z,4.10
2022-12-05T08:46:48.551Z,4.20
2022-12-05T08:49:17.040Z,4.30
2022-12-05T08:51:45.518Z,4.40
2022-12-05T08:54:13.813Z,4.40
2022-12-05T08:56:41.960Z,4.50
2022-12-05T08:59:11.269Z,4.60
2022-12-05T09:01:40.531Z,4.60
2022-12-05T09:04:08.970Z,4.70
2022-12-05T09:06:39.282Z,4.70
2022-12-05T09:09:11.306Z,4.80
2022-12-05T09:11:44.078Z,4.80
2022-12-05T09:14:13.521Z,4.90
2022-12-05T09:16:41.753Z,4.90
2022-12-05T09:19:14.297Z,4.90
2022-12-05T09:21:43.334Z,4.90
2022-12-05T09:24:12.685Z,4.80
2022-12-05T09:26:41.712Z,4.70
2022-12-05T09:29:15.881Z,4.70
2022-12-05T09:31:47.649Z,4.70
2022-12-05T09:34:18.691Z,4.80
2022-12-05T09:36:49.780Z,4.70
2022-12-05T09:39:17.764Z,4.60
2022-12-05T09:42:18.428Z,4.50
2022-12-05T09:45:05.881Z,4.50
2022-12-05T09:47:46.972Z,4.40
2022-12-05T09:50:20.066Z,4.40
2022-12-05T09:52:59.400Z,4.40
2022-12-05T09:55:32.077Z,4.60
2022-12-05T09:58:03.803Z,4.60
2022-12-05T10:00:33.440Z,4.70
2022-12-05T10:03:14.085Z,4.70
2022-12-05T10:05:48.454Z,4.80
2022-12-05T10:08:22.812Z,4.80
2022-12-05T10:11:01.117Z,5.00
2022-12-05T10:13:44.398Z,5.20
2022-12-05T10:16:16.626Z,5.10
2022-12-05T10:18:49.633Z,5.10
2022-12-05T10:21:22.502Z,5.20
2022-12-05T10:23:58.254Z,5.30
2022-12-05T10:26:30.989Z,5.40
2022-12-05T10:29:05.303Z,5.40
2022-12-05T10:31:37.765Z,5.50
2022-12-05T10:34:15.120Z,5.50
2022-12-05T10:36:51.685Z,5.50
2022-12-05T10:39:19.702Z,5.50
2022-12-05T10:41:47.774Z,5.40
2022-12-05T10:44:15.944Z,5.40
2022-12-05T10:46:43.963Z,5.30
2022-12-05T10:49:14.164Z,5.40
2022-12-05T10:51:42.450Z,5.30
2022-12-05T10:54:18.144Z,5.20
2022-12-05T10:56:47.728Z,5.10
2022-12-05T10:59:17.552Z,5.20
2022-12-05T11:01:49.518Z,5.40
2022-12-05T11:04:28.566Z,5.50
2022-12-05T11:07:00.318Z,5.70
2022-12-05T11:09:30.423Z,5.80
2022-12-05T11:12:05.220Z,5.90
2022-12-05T11:14:36.150Z,5.90
2022-12-05T11:17:06.713Z,5.90
2022-12-05T11:19:38.858Z,5.80
2022-12-05T11:22:08.067Z,5.70
2022-12-05T11:24:38.019Z,5.60
2022-12-05T11:27:23.240Z,5.60
2022-12-05T11:30:00.750Z,5.50
2022-12-05T11:32:30.976Z,5.50
2022-12-05T11:35:08.850Z,5.60
2022-12-05T11:37:44.367Z,5.50
2022-12-05T11:40:17.527Z,5.50
2022-12-05T11:43:15.218Z,5.50
2022-12-05T11:45:53.500Z,5.50
2022-12-05T11:48:37.714Z,5.90
2022-12-05T11:51:21.786Z,6.00
2022-12-05T11:54:13.356Z,6.00
2022-12-05T11:56:50.916Z,6.10
2022-12-05T11:59:39.603Z,6.10
2022-12-05T12:02:24.173Z,6.10
2022-12-05T12:04:59.706Z,6.10
2022-12-05T12:07:55.988Z,6.20
2022-12-05T12:10:33.848Z,6.30
2022-12-05T12:13:15.272Z,6.40
2022-12-05T12:15:53.780Z,6.40
2022-12-05T12:18:44.216Z,6.40
2022-12-05T12:21:18.915Z,6.30
2022-12-05T12:24:06.886Z,6.30
2022-12-05T12:26:43.514Z,6.40
2022-12-05T12:29:31.370Z,6.40
2022-12-05T12:32:15.162Z,6.30
2022-12-05T12:34:57.248Z,6.30
2022-12-05T12:37:35.111Z,6.30
2022-12-05T12:40:14.981Z,6.20
2022-12-05T12:42:56.091Z,6.20
2022-12-05T12:45:35.797Z,6.10
2022-12-05T12:48:13.681Z,6.10
2022-12-05T12:50:44.869Z,6.00
2022-12-05T12:53:42.190Z,5.90
2022-12-05T12:56:24.124Z,5.80
2022-12-05T12:58:57.786Z,5.80
2022-12-05T13:01:35.074Z,5.80
2022-12-05T13:04:12.434Z,5.80
2022-12-05T13:06:46.091Z,5.90
2022-12-05T13:09:21.721Z,5.90
2022-12-05T13:11:53.339Z,5.90
2022-12-05T13:14:27.348Z,5.90
2022-12-05T13:16:57.140Z,5.90
2022-12-05T13:19:29.897Z,6.00
2022-12-05T13:21:59.469Z,6.00
2022-12-05T13:24:29.771Z,6.10
2022-12-05T13:27:01.892Z,6.10
2022-12-05T13:29:34.369Z,6.10
2022-12-05T13:32:04.019Z,6.10
2022-12-05T13:34:50.101Z,6.10
2022-12-05T13:37:45.023Z,5.90
2022-12-05T13:40:56.210Z,5.90
2022-12-05T13:43:28.968Z,5.80
2022-12-05T13:46:04.124Z,5.80
2022-12-05T13:48:35.150Z,5.70
2022-12-05T13:51:07.613Z,5.80
2022-12-05T13:53:39.931Z,5.80
2022-12-05T13:56:27.373Z,5.80
2022-12-05T13:58:57.945Z,5.80
2022-12-05T14:01:55.704Z,5.70
2022-12-05T14:04:50.766Z,5.80
2022-12-05T14:07:39.790Z,5.80
2022-12-05T14:10:09.718Z,5.80
2022-12-05T14:12:55.995Z,5.80
2022-12-05T14:15:37.826Z,5.80
2022-12-05T14:18:12.143Z,5.80
2022-12-05T14:20:59.269Z,5.80
2022-12-05T14:23:56.990Z,5.70
2022-12-05T14:26:52.449Z,5.70
2022-12-05T14:29:40.989Z,5.70
2022-12-05T14:32:24.768Z,5.60
2022-12-05T14:34:59.547Z,5.60
2022-12-05T14:37:30.581Z,5.70
2022-12-05T14:40:01.150Z,5.70
2022-12-05T14:42:38.204Z,5.70
2022-12-05T14:45:33.092Z,5.70
2022-12-05T14:48:04.839Z,5.70
2022-12-05T14:50:43.960Z,5.60
2022-12-05T14:53:35.216Z,5.60
2022-12-05T14:56:17.284Z,5.60
2022-12-05T14:58:52.913Z,5.50
2022-12-05T15:01:24.139Z,5.40
2022-12-05T15:04:08.313Z,5.40
2022-12-05T15:06:45.877Z,5.30
2022-12-05T15:09:38.568Z,5.30
2022-12-05T15:12:12.919Z,5.20
2022-12-05T15:14:48.055Z,5.20
2022-12-05T15:17:22.970Z,5.20
2022-12-05T15:19:58.520Z,5.10
2022-12-05T15:22:29.101Z,5.10
2022-12-05T15:24:57.368Z,5.00
2022-12-05T15:27:25.646Z,5.00
2022-12-05T15:29:56.658Z,5.00
2022-12-05T15:32:28.178Z,5.00
2022-12-05T15:35:04.878Z,4.90
2022-12-05T15:37:41.421Z,4.90
2022-12-05T15:40:14.292Z,4.90
2022-12-05T15:42:44.666Z,4.90
2022-12-05T15:45:28.781Z,4.80
2022-12-05T15:47:59.298Z,4.80
2022-12-05T15:50:34.972Z,4.80
2022-12-05T15:53:08.286Z,4.70
2022-12-05T15:55:42.250Z,4.70
2022-12-05T15:58:16.452Z,4.70
2022-12-05T16:00:49.451Z,4.70
2022-12-05T16:03:22.487Z,4.70
2022-12-05T16:05:56.759Z,4.70
2022-12-05T16:08:25.241Z,4.70
2022-12-05T16:10:53.348Z,4.60
2022-12-05T16:13:26.665Z,4.60
2022-12-05T16:15:55.770Z,4.50
2022-12-05T16:18:27.578Z,4.60
2022-12-05T16:20:59.409Z,4.50
2022-12-05T16:23:30.097Z,4.40
2022-12-05T16:26:19.679Z,4.40
2022-12-05T16:28:58.932Z,4.30
2022-12-05T16:31:27.451Z,4.30
2022-12-05T16:34:03.990Z,4.30
2022-12-05T16:36:33.989Z,4.20
2022-12-05T16:39:04.531Z,4.10
2022-12-05T16:41:35.451Z,4.00
2022-12-05T16:44:09.459Z,3.90
2022-12-05T16:46:47.184Z,3.90
2022-12-05T16:49:32.765Z,3.90
2022-12-05T16:52:04.848Z,3.80
2022-12-05T16:54:33.332Z,3.80
2022-12-05T16:57:02.166Z,3.80
2022-12-05T16:59:35.068Z,3.80
2022-12-05T17:02:05.185Z,3.80
2022-12-05T17:04:33.568Z,3.80
2022-12-05T17:07:02.999Z,3.80
2022-12-05T17:09:31.067Z,3.80
2022-12-05T17:12:05.144Z,3.80
2022-12-05T17:14:33.140Z,3.70
2022-12-05T17:17:03.698Z,3.60
2022-12-05T17:19:33.370Z,3.60
2022-12-05T17:22:05.004Z,3.50
2022-12-05T17:24:33.348Z,3.50
2022-12-05T17:27:01.289Z,3.40
2022-12-05T17:29:35.296Z,3.30
2022-12-05T17:32:03.989Z,3.30
2022-12-05T17:34:32.067Z,3.30
2022-12-05T17:37:00.262Z,3.40
2022-12-05T17:39:29.581Z,3.50
2022-12-05T17:41:57.595Z,3.60
2022-12-05T17:44:25.766Z,3.80
2022-12-05T17:46:53.703Z,3.90
2022-12-05T17:49:22.776Z,3.90
2022-12-05T17:52:20.484Z,3.90
2022-12-05T17:54:43.010Z,3.90
2022-12-05T17:57:11.127Z,3.80
2022-12-05T17:59:39.544Z,3.70
2022-12-05T18:02:07.726Z,3.70
2022-12-05T18:04:36.752Z,3.60
2022-12-05T18:07:07.675Z,3.60
2022-12-05T18:09:35.712Z,3.50
2022-12-05T18:12:06.069Z,3.50
2022-12-05T18:14:36.866Z,3.60
2022-12-05T18:17:05.120Z,3.50
2022-12-05T18:19:33.066Z,3.60
2022-12-05T18:22:01.244Z,3.60
2022-12-05T18:24:29.372Z,3.70
2022-12-05T18:26:57.852Z,3.80
2022-12-05T18:29:27.355Z,3.80
2022-12-05T18:31:57.469Z,3.80
2022-12-05T18:34:25.630Z,3.70
2022-12-05T18:36:53.611Z,3.70
2022-12-05T18:39:21.551Z,3.60
2022-12-05T18:41:49.571Z,3.50
2022-12-05T18:44:17.516Z,3.40
2022-12-05T18:46:46.827Z,3.40
2022-12-05T18:49:15.170Z,3.40
2022-12-05T18:51:43.541Z,3.40
2022-12-05T18:54:11.969Z,3.40
2022-12-05T18:56:40.315Z,3.50
2022-12-05T18:59:09.635Z,3.50
2022-12-05T19:01:40.964Z,3.50
2022-12-05T19:04:13.563Z,3.60
2022-12-05T19:06:43.190Z,3.60
2022-12-05T19:09:15.336Z,3.60
2022-12-05T19:11:48.137Z,3.60
2022-12-05T19:14:18.718Z,3.50
2022-12-05T19:16:50.306Z,3.60
2022-12-05T19:19:21.435Z,3.60
2022-12-05T19:21:49.612Z,3.60
2022-12-05T19:24:19.475Z,3.60
2022-12-05T19:26:48.776Z,3.50
2022-12-05T19:29:17.644Z,3.60
2022-12-05T19:31:46.291Z,3.70
2022-12-05T19:34:14.303Z,3.80
2022-12-05T19:36:46.346Z,3.80
2022-12-05T19:39:17.905Z,3.80
2022-12-05T19:41:49.064Z,3.80
2022-12-05T19:44:17.072Z,3.80
2022-12-05T19:46:45.640Z,3.80
2022-12-05T19:49:16.345Z,3.90
2022-12-05T19:51:46.656Z,3.90
2022-12-05T19:54:17.745Z,3.90
2022-12-05T19:56:46.082Z,4.00
2022-12-05T19:59:16.735Z,4.00
2022-12-05T20:01:44.935Z,4.00
2022-12-05T20:04:15.468Z,4.00
2022-12-05T20:06:49.833Z,3.90
2022-12-05T20:09:20.128Z,3.90
2022-12-05T20:11:55.165Z,3.80
2022-12-05T20:14:24.732Z,3.80
2022-12-05T20:16:52.856Z,3.70
2022-12-05T20:19:21.523Z,3.70
2022-12-05T20:21:55.299Z,3.70
2022-12-05T20:24:23.332Z,3.70
2022-12-05T20:26:52.930Z,3.70
2022-12-05T20:29:21.134Z,3.70
2022-12-05T20:31:56.632Z,3.70
2022-12-05T20:34:26.800Z,3.70
2022-12-05T20:36:56.156Z,3.60
2022-12-05T20:39:24.898Z,3.60
2022-12-05T20:41:53.047Z,3.60
2022-12-05T20:44:21.305Z,3.70
2022-12-05T20:46:50.766Z,3.70
2022-12-05T20:49:19.015Z,3.70
2022-12-05T20:51:48.175Z,3.70
2022-12-05T20:54:18.390Z,3.60
2022-12-05T20:56:49.206Z,3.50
2022-12-05T20:59:17.211Z,3.50
2022-12-05T21:01:47.238Z,3.50
2022-12-05T21:04:15.537Z,3.50
2022-12-05T21:06:45.902Z,3.40
2022-12-05T21:09:18.607Z,3.40
2022-12-05T21:11:47.943Z,3.50
2022-12-05T21:14:15.905Z,3.40
2022-12-05T21:16:44.162Z,3.40
2022-12-05T21:19:12.486Z,3.50
2022-12-05T21:21:40.584Z,3.60
2022-12-05T21:24:10.404Z,3.60
2022-12-05T21:26:39.763Z,3.60
2022-12-05T21:29:10.583Z,3.60
2022-12-05T21:31:41.150Z,3.60
2022-12-05T21:34:14.839Z,3.60
2022-12-05T21:36:43.541Z,3.60
2022-12-05T21:39:12.367Z,3.50
2022-12-05T21:41:40.850Z,3.40
2022-12-05T21:44:10.330Z,3.30
2022-12-05T21:46:38.421Z,3.20
2022-12-05T21:49:06.508Z,3.20
2022-12-05T21:51:34.951Z,3.10
2022-12-05T21:54:02.907Z,3.10
2022-12-05T21:56:30.904Z,3.10
2022-12-05T21:58:59.008Z,3.10
2022-12-05T22:01:29.315Z,3.10
2022-12-05T22:03:59.378Z,3.10
2022-12-05T22:06:27.959Z,3.20
2022-12-05T22:08:56.202Z,3.30
2022-12-05T22:11:25.643Z,3.30
2022-12-05T22:13:53.991Z,3.30
2022-12-05T22:16:25.352Z,3.40
2022-12-05T22:18:58.792Z,3.40
2022-12-05T22:21:26.688Z,3.40
2022-12-05T22:23:54.715Z,3.60
2022-12-05T22:26:24.449Z,3.60
2022-12-05T22:28:53.634Z,3.60
2022-12-05T22:31:22.447Z,3.60
2022-12-05T22:33:51.005Z,3.50
2022-12-05T22:36:21.159Z,3.40
2022-12-05T22:38:49.794Z,3.40
2022-12-05T22:41:19.828Z,3.40
2022-12-05T22:43:49.505Z,3.40
2022-12-05T22:46:19.114Z,3.40
2022-12-05T22:48:48.062Z,3.40
2022-12-05T22:51:16.684Z,3.30
2022-12-05T22:53:46.184Z,3.30
2022-12-05T22:56:15.404Z,3.30
2022-12-05T22:58:44.308Z,3.30
2022-12-05T23:01:14.581Z,3.30
2022-12-05T23:03:43.408Z,3.20
2022-12-05T23:06:13.172Z,3.20
2022-12-05T23:08:41.917Z,3.20
2022-12-05T23:11:11.889Z,3.10
2022-12-05T23:13:40.721Z,3.10
2022-12-05T23:16:10.547Z,3.10
2022-12-05T23:18:47.675Z,3.10
2022-12-05T23:21:20.780Z,3.10
2022-12-05T23:23:49.902Z,3.10
2022-12-05T23:26:20.653Z,3.10
2022-12-05T23:28:48.901Z,3.10
2022-12-05T23:31:17.677Z,3.00
2022-12-05T23:33:48.526Z,3.00
2022-12-05T23:36:19.416Z,3.00
2022-12-05T23:38:47.850Z,3.00
2022-12-05T23:41:17.895Z,3.00
2022-12-05T23:43:48.574Z,3.00
2022-12-05T23:46:17.911Z,3.00
2022-12-05T23:48:46.001Z,3.00
2022-12-05T23:51:15.936Z,2.90
2022-12-05T23:53:45.534Z,2.90
2022-12-05T23:56:15.408Z,2.90
2022-12-05T23:58:43.623Z,2.90
